Time;durP1;ratioP1;P1;durP2;ratioP2;P2;SDS_P1;SDS_P2;PMS_P1;PMS_P2;Temp;Humidity;BMP_temperature;BMP_pressure;BME280_temperature;BME280_humidity;BME280_pressure;Samples;Min_cycle;Max_cycle;Signal;HPM_P1;HPM_P2
2022/04/12 00:00:00;;;;;;;;;;;;;;;-144.19;100.00;77209.16;4994068;28;19925;-83
2022/04/12 00:02:28;;;;;;;;;;;;;;;-144.19;100.00;77205.22;5011260;28;20421;-82
2022/04/12 00:04:54;;;;;;;;;;;;;;;-144.19;100.00;77207.19;5011967;28;20228;-84
2022/04/12 00:07:25;;;;;;;;;;;;;;;-144.19;100.00;77215.06;4995638;28;19929;-83
2022/04/12 00:09:51;;;;;;;;;;;;;;;-144.19;100.00;77213.09;5011976;28;19926;-83
2022/04/12 00:12:18;;;;;;;;;;;;;;;-144.19;100.00;77219.00;5011653;28;19947;-85
2022/04/12 00:14:44;;;;;;;;;;;;;;;-144.19;100.00;77215.06;5011765;28;19925;-84
2022/04/12 00:19:56;;;;;;;;;;;;;;;-144.19;100.00;77226.88;5011688;28;20349;-83
2022/04/12 00:22:22;;;;;;;;;;;;;;;-144.19;100.00;77224.91;5011545;28;19925;-83
2022/04/12 00:24:48;;;;;;;;;;;;;;;-144.19;100.00;77224.91;5011367;28;20459;-83
2022/04/12 00:27:15;;;;;;;;;;;;;;;-144.19;100.00;77230.81;5011650;28;19964;-83
2022/04/12 00:29:41;;;;;;;;;;;;;;;-144.19;100.00;77232.78;4991205;28;20404;-83
2022/04/12 00:32:07;;;;;;;;;;;;;;;-144.19;100.00;77240.66;5010598;28;20395;-83
2022/04/12 00:34:34;;;;;;;;;;;;;;;-144.19;100.00;77236.72;5001106;28;19925;-84
2022/04/12 00:37:00;;;;;;;;;;;;;;;-144.19;100.00;77244.59;5013674;28;20410;-83
2022/04/12 00:39:26;;;;;;;;;;;;;;;-144.19;100.00;77240.66;5013664;28;19929;-86
2022/04/12 00:41:54;;;;;;;;;;;;;;;-144.19;100.00;77264.28;5031223;28;19925;-83
2022/04/12 00:44:20;;;;;;;;;;;;;;;-144.19;100.00;77280.03;5029953;28;19925;-84
2022/04/12 00:46:47;;;;;;;;;;;;;;;-144.19;100.00;77291.84;5031810;28;19926;-85
2022/04/12 00:49:13;;;;;;;;;;;;;;;-144.19;100.00;77303.66;5050761;22;19929;-83
2022/04/12 00:51:39;;;;;;;;;;;;;;;-144.19;100.00;77303.66;5031009;28;19925;-83
2022/04/12 00:54:06;;;;;;;;;;;;;;;-144.19;100.00;77307.59;5030353;28;19935;-83
2022/04/12 00:56:32;;;;;;;;;;;;;;;-144.19;100.00;77321.38;5030162;28;19936;-83
2022/04/12 00:59:01;;;;;;;;;;;;;;;-144.19;100.00;77337.13;5017174;28;19930;-83
2022/04/12 01:01:27;;;;;;;;;;;;;;;-144.19;100.00;77352.88;4993461;28;19930;-83
2022/04/12 01:03:54;;;;;;;;;;;;;;;-144.19;100.00;77348.94;4992948;28;19980;-84
2022/04/12 01:06:21;;;;;;;;;;;;;;;-144.19;100.00;77354.84;5011589;28;20313;-84
2022/04/12 01:08:47;;;;;;;;;;;;;;;-144.19;100.00;77360.75;5011418;28;20379;-83
2022/04/12 01:11:13;;;;;;;;;;;;;;;-144.19;100.00;77354.84;4993511;28;20027;-84
2022/04/12 01:13:40;;;;;;;;;;;;;;;-144.19;100.00;77382.41;5010588;28;19926;-83
2022/04/12 01:16:07;;;;;;;;;;;;;;;-144.19;100.00;77378.47;5010422;28;20034;-83
2022/04/12 01:18:34;;;;;;;;;;;;;;;-144.19;100.00;77343.03;5011231;28;19929;-83
2022/04/12 01:21:01;;;;;;;;;;;;;;;-144.19;100.00;77333.19;4993464;28;19945;-84
2022/04/12 01:23:31;;;;;;;;;;;;;;;-144.19;100.00;77374.53;5010601;28;19925;-83
2022/04/12 01:25:57;;;;;;;;;;;;;;;-144.19;100.00;77378.47;4993586;28;20364;-84
2022/04/12 01:28:24;;;;;;;;;;;;;;;-144.19;100.00;77396.19;5013846;28;19941;-84
2022/04/12 01:30:51;;;;;;;;;;;;;;;-144.19;100.00;77406.03;5013551;28;19929;-84
2022/04/12 01:33:20;;;;;;;;;;;;;;;-144.19;100.00;77398.16;5013462;28;19930;-84
2022/04/12 01:35:47;;;;;;;;;;;;;;;-144.19;100.00;77394.22;5013817;28;19925;-83
2022/04/12 01:38:14;;;;;;;;;;;;;;;-144.19;100.00;77406.03;5013882;28;20348;-83
2022/04/12 01:40:41;;;;;;;;;;;;;;;-144.19;100.00;77413.91;5013210;28;19937;-84
2022/04/12 01:43:10;;;;;;;;;;;;;;;-144.19;100.00;77394.22;5031693;28;19930;-83
2022/04/12 01:45:37;;;;;;;;;;;;;;;-144.19;100.00;77390.28;5031333;28;19929;-83
2022/04/12 01:48:04;;;;;;;;;;;;;;;-144.19;100.00;77398.16;5031747;28;19937;-83
2022/04/12 01:50:34;;;;;;;;;;;;;;;-144.19;100.00;77429.66;5015773;28;19972;-84
2022/04/12 01:53:01;;;;;;;;;;;;;;;-144.19;100.00;77429.66;5035054;28;19926;-84
2022/04/12 01:55:28;;;;;;;;;;;;;;;-144.19;100.00;77417.84;5035593;28;19913;-83
2022/04/12 01:57:55;;;;;;;;;;;;;;;-144.19;100.00;77421.78;5039381;28;19931;-82
2022/04/12 02:00:22;;;;;;;;;;;;;;;-144.19;100.00;77425.72;5035750;28;20007;-83
2022/04/12 02:02:49;;;;;;;;;;;;;;;-144.19;100.00;77402.09;5054125;28;19948;-84
2022/04/12 02:05:20;;;;;;;;;;;;;;;-144.19;100.00;77378.47;5053019;28;19931;-83
2022/04/12 02:07:47;;;;;;;;;;;;;;;-144.19;100.00;77376.50;5036007;28;19952;-84
2022/04/12 02:10:13;;;;;;;;;;;;;;;-144.19;100.00;77402.09;5034371;28;19967;-84
2022/04/12 02:12:40;;;;;;;;;;;;;;;-144.19;100.00;77402.09;5028615;28;19971;-84
2022/04/12 02:15:06;;;;;;;;;;;;;;;-144.19;100.00;77417.84;5035972;28;19929;-83
2022/04/12 02:17:33;;;;;;;;;;;;;;;-144.19;100.00;77421.78;5034971;28;20302;-83
2022/04/12 02:19:59;;;;;;;;;;;;;;;-144.19;100.00;77406.03;5035381;28;19925;-83
2022/04/12 02:22:25;;;;;;;;;;;;;;;-144.19;100.00;77406.03;5016717;28;19932;-84
2022/04/12 02:24:52;;;;;;;;;;;;;;;-144.19;100.00;77398.16;5017421;28;19925;-83
2022/04/12 02:27:18;;;;;;;;;;;;;;;-144.19;100.00;77402.09;5040308;28;20098;-83
2022/04/12 02:29:44;;;;;;;;;;;;;;;-144.19;100.00;77427.69;5042690;28;20387;-83
2022/04/12 02:32:10;;;;;;;;;;;;;;;-144.19;100.00;77433.59;5036740;28;20312;-84
2022/04/12 02:34:37;;;;;;;;;;;;;;;-144.19;100.00;77437.53;5013821;28;19929;-83
2022/04/12 02:37:03;;;;;;;;;;;;;;;-144.19;100.00;77433.59;5000029;28;20375;-83
2022/04/12 02:39:29;;;;;;;;;;;;;;;-144.19;100.00;77439.50;5000492;28;19933;-83
2022/04/12 02:41:56;;;;;;;;;;;;;;;-144.19;100.00;77437.53;5016289;28;19925;-83
2022/04/12 02:44:22;;;;;;;;;;;;;;;-144.19;100.00;77437.53;5018030;28;19932;-84
2022/04/12 02:46:48;;;;;;;;;;;;;;;-144.19;100.00;77437.53;5000719;28;19925;-83
2022/04/12 02:49:15;;;;;;;;;;;;;;;-144.19;100.00;77421.78;5000844;28;19976;-84
2022/04/12 02:51:41;;;;;;;;;;;;;;;-144.19;100.00;77409.97;5017024;28;19931;-83
2022/04/12 02:54:07;;;;;;;;;;;;;;;-144.19;100.00;77402.09;5017139;28;19925;-83
2022/04/12 02:56:34;;;;;;;;;;;;;;;-144.19;100.00;77394.22;5018302;28;19932;-84
2022/04/12 02:59:00;;;;;;;;;;;;;;;-144.19;100.00;77382.41;5000142;28;19925;-83
2022/04/12 03:01:26;;;;;;;;;;;;;;;-144.19;100.00;77409.97;4998538;28;19936;-83
2022/04/12 03:03:53;;;;;;;;;;;;;;;-144.19;100.00;77417.84;4998627;28;19932;-83
2022/04/12 03:06:19;;;;;;;;;;;;;;;-144.19;100.00;77404.06;5016999;28;19931;-83
2022/04/12 03:08:45;;;;;;;;;;;;;;;-144.19;100.00;77425.72;5017738;28;20392;-83
2022/04/12 03:11:11;;;;;;;;;;;;;;;-144.19;100.00;77453.28;5017131;28;19945;-83
2022/04/12 03:13:39;;;;;;;;;;;;;;;-144.19;100.00;77453.28;5016976;28;19948;-83
2022/04/12 03:16:05;;;;;;;;;;;;;;;-144.19;100.00;77459.19;5017398;28;19964;-83
2022/04/12 03:18:31;;;;;;;;;;;;;;;-144.19;100.00;77449.34;5016830;28;20132;-84
2022/04/12 03:20:58;;;;;;;;;;;;;;;-144.19;100.00;77437.53;5016341;28;19932;-83
2022/04/12 03:23:24;;;;;;;;;;;;;;;-144.19;100.00;77445.41;4998640;28;19933;-83
2022/04/12 03:25:50;;;;;;;;;;;;;;;-144.19;100.00;77457.22;4999394;28;19932;-83
2022/04/12 03:28:17;;;;;;;;;;;;;;;-144.19;100.00;77445.41;5016932;28;19930;-84
2022/04/12 03:30:43;;;;;;;;;;;;;;;-144.19;100.00;77457.22;4998447;28;19925;-83
2022/04/12 03:33:10;;;;;;;;;;;;;;;-144.19;100.00;77459.19;5015604;28;20330;-83
2022/04/12 03:35:36;;;;;;;;;;;;;;;-144.19;100.00;77480.84;5012904;28;20447;-83
2022/04/12 03:38:02;;;;;;;;;;;;;;;-144.19;100.00;77500.53;5036066;28;19957;-83
2022/04/12 03:40:31;;;;;;;;;;;;;;;-144.19;100.00;77492.66;5017240;28;19926;-83
2022/04/12 03:42:58;;;;;;;;;;;;;;;-144.19;100.00;77492.66;5017401;28;19975;-83
2022/04/12 03:45:25;;;;;;;;;;;;;;;-144.19;100.00;77496.59;5035724;28;19957;-83
2022/04/12 03:47:52;;;;;;;;;;;;;;;-144.19;100.00;77504.47;5018194;28;20299;-83
2022/04/12 03:50:18;;;;;;;;;;;;;;;-144.19;100.00;77502.50;5016885;28;19925;-83
2022/04/12 03:52:44;;;;;;;;;;;;;;;-144.19;100.00;77500.53;5034713;28;20414;-83
2022/04/12 03:55:11;;;;;;;;;;;;;;;-144.19;100.00;77496.59;5035046;28;19925;-82
2022/04/12 03:57:37;;;;;;;;;;;;;;;-144.19;100.00;77504.47;5035387;28;19936;-82
2022/04/12 04:00:08;;;;;;;;;;;;;;;-144.19;100.00;77510.38;5034276;28;19940;-84
2022/04/12 04:02:35;;;;;;;;;;;;;;;-144.19;100.00;77512.34;5018105;28;19931;-84
2022/04/12 04:05:01;;;;;;;;;;;;;;;-144.19;100.00;77502.50;5036940;28;20005;-83
2022/04/12 04:07:28;;;;;;;;;;;;;;;-144.19;100.00;77504.47;5018549;28;19933;-84
2022/04/12 04:09:54;;;;;;;;;;;;;;;-144.19;100.00;77496.59;5017099;28;19976;-84
2022/04/12 04:12:20;;;;;;;;;;;;;;;-144.19;100.00;77498.56;5011414;28;19930;-83
2022/04/12 04:14:47;;;;;;;;;;;;;;;-144.19;100.00;77504.47;5027043;28;19929;-84
2022/04/12 04:17:13;;;;;;;;;;;;;;;-144.19;100.00;77500.53;5024028;28;19926;-83
2022/04/12 04:19:40;;;;;;;;;;;;;;;-144.19;100.00;77478.88;5001479;28;20301;-83
2022/04/12 04:22:06;;;;;;;;;;;;;;;-144.19;100.00;77492.66;5006056;28;19947;-83
2022/04/12 04:24:34;;;;;;;;;;;;;;;-144.19;100.00;77486.75;5008685;28;19933;-82
2022/04/12 04:27:00;;;;;;;;;;;;;;;-144.19;100.00;77482.81;5014399;28;19933;-83
2022/04/12 04:29:33;;;;;;;;;;;;;;;-144.19;100.00;77488.72;4996242;28;20281;-84
2022/04/12 04:31:59;;;;;;;;;;;;;;;-144.19;100.00;77496.59;4995087;28;19980;-84
2022/04/12 04:34:25;;;;;;;;;;;;;;;-144.19;100.00;77512.34;5019029;28;19925;-84
2022/04/12 04:36:52;;;;;;;;;;;;;;;-144.19;100.00;77512.34;5033805;28;19932;-83
2022/04/12 04:39:18;;;;;;;;;;;;;;;-144.19;100.00;77508.41;5015915;28;19932;-83
2022/04/12 04:41:44;;;;;;;;;;;;;;;-144.19;100.00;77488.72;5033084;28;19927;-83
2022/04/12 04:44:11;;;;;;;;;;;;;;;-144.19;100.00;77480.84;5031800;28;19932;-82
2022/04/12 04:46:37;;;;;;;;;;;;;;;-144.19;100.00;77484.78;5015499;28;19925;-84
2022/04/12 04:49:08;;;;;;;;;;;;;;;-144.19;100.00;77472.97;5009168;28;20372;-84
2022/04/12 04:51:37;;;;;;;;;;;;;;;-144.19;100.00;77478.88;4991756;28;19933;-83
2022/04/12 04:54:03;;;;;;;;;;;;;;;-144.19;100.00;77472.97;5008139;28;20060;-83
2022/04/12 04:56:29;;;;;;;;;;;;;;;-144.19;100.00;77465.09;5008532;28;19926;-83
2022/04/12 04:58:57;;;;;;;;;;;;;;;-144.19;100.00;77449.34;5030525;28;19932;-83
2022/04/12 05:01:23;;;;;;;;;;;;;;;-144.19;100.00;77449.34;5033061;28;20296;-83
2022/04/12 05:03:52;;;;;;;;;;;;;;;-144.19;100.00;77449.34;5032470;28;19925;-83
2022/04/12 05:06:18;;;;;;;;;;;;;;;-144.19;100.00;77435.56;5033512;28;19992;-83
2022/04/12 05:08:45;;;;;;;;;;;;;;;-144.19;100.00;77423.75;5015198;28;19925;-83
2022/04/12 05:11:11;;;;;;;;;;;;;;;-144.19;100.00;77404.06;5014149;28;19975;-84
2022/04/12 05:13:38;;;;;;;;;;;;;;;-144.19;100.00;77394.22;5031804;28;20476;-84
2022/04/12 05:16:05;;;;;;;;;;;;;;;-144.19;100.00;77400.13;5015484;28;19925;-84
2022/04/12 05:18:31;;;;;;;;;;;;;;;-144.19;100.00;77402.09;5015031;28;19931;-82
2022/04/12 05:20:57;;;;;;;;;;;;;;;-144.19;100.00;77402.09;5032818;28;19925;-82
2022/04/12 05:23:24;;;;;;;;;;;;;;;-144.19;100.00;77398.16;5032021;28;19932;-83
2022/04/12 05:25:53;;;;;;;;;;;;;;;-144.19;100.00;77398.16;5017423;28;19948;-83
2022/04/12 05:28:20;;;;;;;;;;;;;;;-144.19;100.00;77394.22;5036631;28;19931;-82
2022/04/12 05:30:46;;;;;;;;;;;;;;;-144.19;100.00;77396.19;5018925;28;19935;-83
2022/04/12 05:33:13;;;;;;;;;;;;;;;-144.19;100.00;77396.19;5035498;28;20309;-83
2022/04/12 05:35:39;;;;;;;;;;;;;;;-144.19;100.00;77382.41;5020367;28;20696;-83
2022/04/12 05:38:06;;;;;;;;;;;;;;;-144.19;100.00;77370.59;5016163;28;19926;-83
2022/04/12 05:40:33;;;;;;;;;;;;;;;-144.19;100.00;77366.66;5015737;28;20311;-83
2022/04/12 05:42:59;;;;;;;;;;;;;;;-144.19;100.00;77366.66;5015475;28;19926;-83
2022/04/12 05:45:28;;;;;;;;;;;;;;;-144.19;100.00;77358.78;5016008;28;19925;-83
2022/04/12 05:47:55;;;;;;;;;;;;;;;-144.19;100.00;77356.81;5016412;28;20032;-82
2022/04/12 05:50:25;;;;;;;;;;;;;;;-144.19;100.00;77362.72;5015388;28;19925;-83
2022/04/12 05:52:52;;;;;;;;;;;;;;;-144.19;100.00;77366.66;4997867;28;19925;-83
2022/04/12 05:55:20;;;;;;;;;;;;;;;-144.19;100.00;77366.66;4997605;28;20395;-83
2022/04/12 05:57:54;;;;;;;;;;;;;;;-144.19;100.00;77362.72;5015617;28;19976;-83
2022/04/12 06:00:21;;;;;;;;;;;;;;;-144.19;100.00;77366.66;5015329;28;19932;-83
2022/04/12 06:02:48;;;;;;;;;;;;;;;-144.19;100.00;77358.78;4997528;28;19933;-83
2022/04/12 06:05:15;;;;;;;;;;;;;;;-144.19;100.00;77358.78;5015373;28;20271;-84
2022/04/12 06:07:42;;;;;;;;;;;;;;;-144.19;100.00;77354.84;4997778;28;19929;-83
2022/04/12 06:10:09;;;;;;;;;;;;;;;-144.19;100.00;77346.97;4998227;28;19926;-83
2022/04/12 06:12:36;;;;;;;;;;;;;;;-144.19;100.00;77343.03;5015051;28;19925;-83
2022/04/12 06:15:03;;;;;;;;;;;;;;;-144.19;100.00;77335.16;5015440;28;20395;-83
2022/04/12 06:17:33;;;;;;;;;;;;;;;-144.19;100.00;77331.22;4997675;28;20314;-83
2022/04/12 06:20:03;;;;;;;;;;;;;;;-144.19;100.00;77323.34;4997288;28;19925;-83
2022/04/12 06:22:29;;;;;;;;;;;;;;;-144.19;100.00;77309.56;5014182;28;19933;-83
2022/04/12 06:24:56;;;;;;;;;;;;;;;-144.19;100.00;77293.81;4997733;28;19931;-83
2022/04/12 06:27:29;;;;;;;;;;;;;;;-144.19;100.00;77280.03;5015160;28;19925;-84
2022/04/12 06:29:55;;;;;;;;;;;;;;;-144.19;100.00;77272.16;5014794;28;20409;-83
2022/04/12 06:32:21;;;;;;;;;;;;;;;-144.19;100.00;77262.31;5014035;28;20422;-83
2022/04/12 06:34:47;;;;;;;;;;;;;;;-144.19;100.00;77256.41;5005124;28;19933;-83
2022/04/12 06:37:14;;;;;;;;;;;;;;;-144.19;100.00;77244.59;5034242;28;19925;-83
2022/04/12 06:39:40;;;;;;;;;;;;;;;-144.19;100.00;77232.78;5017129;28;19925;-83
2022/04/12 06:42:07;;;;;;;;;;;;;;;-144.19;100.00;77222.94;5027644;28;19925;-84
2022/04/12 06:44:34;;;;;;;;;;;;;;;-144.19;100.00;77207.19;5025240;28;19929;-85
2022/04/12 06:47:01;;;;;;;;;;;;;;;-144.19;100.00;77195.38;5001714;28;19925;-85
2022/04/12 06:51:55;;;;;;;;;;;;;;;-144.19;100.00;77154.03;5047984;28;20299;-80
2022/04/12 06:54:21;;;;;;;;;;;;;;;-144.19;100.00;77134.34;5044168;28;19926;-82
2022/04/12 06:56:47;;;;;;;;;;;;;;;-144.19;100.00;77118.59;5040245;28;19960;-79
2022/04/12 06:59:15;;;;;;;;;;;;;;;-144.19;100.00;77104.81;5037806;28;19930;-80
2022/04/12 07:01:41;;;;;;;;;;;;;;;-144.19;100.00;77094.97;5041711;28;19933;-82
2022/04/12 07:04:08;;;;;;;;;;;;;;;-144.19;100.00;77071.34;5042799;28;19924;-81
2022/04/12 07:06:35;;;;;;;;;;;;;;;-144.19;100.00;77047.72;5044431;28;19929;-81
2022/04/12 07:09:01;;;;;;;;;;;;;;;-144.19;100.00;77033.94;5042627;28;20314;-82
2022/04/12 07:11:27;;;;;;;;;;;;;;;-144.19;100.00;77028.03;5025559;28;19925;-81
2022/04/12 07:13:54;;;;;;;;;;;;;;;-144.19;100.00;77018.19;5044081;28;20402;-82
2022/04/12 07:16:20;;;;;;;;;;;;;;;-144.19;100.00;77020.16;5023842;28;20240;-83
2022/04/12 07:18:46;;;;;;;;;;;;;;;-144.19;100.00;77010.31;5043754;28;19929;-80
2022/04/12 07:21:13;;;;;;;;;;;;;;;-144.19;100.00;77010.31;5042386;28;20394;-79
2022/04/12 07:23:41;;;;;;;;;;;;;;;-144.19;100.00;77004.41;5042045;28;19928;-81
2022/04/12 07:26:07;;;;;;;;;;;;;;;-144.19;100.00;77020.16;5043955;28;19940;-79
2022/04/12 07:28:33;;;;;;;;;;;;;;;-144.19;100.00;77024.09;5042376;28;19925;-82
2022/04/12 07:31:00;;;;;;;;;;;;;;;-144.19;100.00;77026.06;5024948;28;19935;-80
2022/04/12 07:33:27;;;;;;;;;;;;;;;-144.19;100.00;77020.16;5034861;28;19932;-81
2022/04/12 07:35:53;;;;;;;;;;;;;;;-144.19;100.00;77020.16;5028185;28;19925;-80
2022/04/12 07:38:19;;;;;;;;;;;;;;;-144.19;100.00;77008.34;5034903;28;19936;-79
2022/04/12 07:40:46;;;;;;;;;;;;;;;-144.19;100.00;76994.56;5052105;28;19925;-79
2022/04/12 07:43:12;;;;;;;;;;;;;;;-144.19;100.00;76970.97;5053430;28;19924;-81
2022/04/12 07:45:38;;;;;;;;;;;;;;;-144.19;100.00;76957.19;5047475;28;19928;-81
2022/04/12 07:48:05;;;;;;;;;;;;;;;-144.19;100.00;76943.41;5052442;28;19932;-81
2022/04/12 07:50:31;;;;;;;;;;;;;;;-144.19;100.00;76927.66;5048759;28;20560;-80
2022/04/12 07:52:57;;;;;;;;;;;;;;;-144.19;100.00;76898.13;5052515;28;19925;-81
2022/04/12 07:55:24;;;;;;;;;;;;;;;-144.19;100.00;76884.34;5052546;28;19925;-81
2022/04/12 07:57:50;;;;;;;;;;;;;;;-144.19;100.00;76864.66;5052333;28;19928;-80
2022/04/12 08:00:16;;;;;;;;;;;;;;;-144.19;100.00;76846.94;5051612;28;19932;-81
2022/04/12 08:02:42;;;;;;;;;;;;;;;-144.19;100.00;76827.25;5033302;28;19925;-82
2022/04/12 08:05:09;;;;;;;;;;;;;;;-144.19;100.00;76819.38;5034209;28;19931;-82
2022/04/12 08:07:35;;;;;;;;;;;;;;;-144.19;100.00;76803.63;5035288;28;19929;-84
2022/04/12 08:10:02;;;;;;;;;;;;;;;-144.19;100.00;76780.00;5015082;28;19925;-81
2022/04/12 08:12:28;;;;;;;;;;;;;;;-144.19;100.00;76768.19;5032083;28;19929;-80
2022/04/12 08:14:54;;;;;;;;;;;;;;;-144.19;100.00;76758.34;5031257;28;20627;-81
2022/04/12 08:17:20;;;;;;;;;;;;;;;-144.19;100.00;76750.47;5034323;28;19925;-81
2022/04/12 08:19:47;;;;;;;;;;;;;;;-144.19;100.00;76728.81;5033535;28;19926;-80
2022/04/12 08:22:13;;;;;;;;;;;;;;;-144.19;100.00;76701.25;5031919;28;19947;-80
2022/04/12 08:25:00;;;;;;;;;;;;;;;-144.19;100.00;76661.91;5032409;28;19925;-80
2022/04/12 08:27:26;;;;;;;;;;;;;;;-144.19;100.00;76650.09;5029916;28;20016;-79
2022/04/12 08:29:52;;;;;;;;;;;;;;;-144.19;100.00;76650.09;5015229;28;19932;-80
2022/04/12 08:32:19;;;;;;;;;;;;;;;-144.19;100.00;76608.75;5016306;28;19931;-82
2022/04/12 08:34:45;;;;;;;;;;;;;;;-144.19;100.00;76594.97;5040400;28;19933;-83
2022/04/12 08:37:12;;;;;;;;;;;;;;;-144.19;100.00;76555.59;5037227;28;19940;-83
2022/04/12 08:39:38;;;;;;;;;;;;;;;-144.19;100.00;76526.06;5037522;28;20413;-83
2022/04/12 08:42:05;;;;;;;;;;;;;;;-144.19;100.00;76512.28;5034152;28;19925;-82
2022/04/12 08:44:32;;;;;;;;;;;;;;;-144.19;98.15;76508.34;5038049;28;19992;-81
2022/04/12 08:47:02;;;;;;;;;;;;;;;-144.19;97.03;76461.13;5034508;28;19924;-79
2022/04/12 08:49:28;;;;;;;;;;;;;;;-144.19;99.28;76433.56;5053988;28;20028;-83
2022/04/12 08:51:55;;;;;;;;;;;;;;;-144.19;98.31;76415.84;5053991;28;19924;-80
2022/04/12 08:54:22;;;;;;;;;;;;;;;-144.19;94.86;76394.19;5053492;28;19924;-80
2022/04/12 08:56:49;;;;;;;;;;;;;;;-144.19;93.04;76366.63;5053725;28;19931;-83
2022/04/12 08:59:18;;;;;;;;;;;;;;;-144.19;89.39;76362.69;5035792;28;19925;-82
2022/04/12 09:01:46;;;;;;;;;;;;;;;-144.19;91.71;76354.81;5053129;28;19931;-83
2022/04/12 09:04:13;;;;;;;;;;;;;;;-144.19;95.61;76343.03;5051474;28;20016;-83
2022/04/12 09:06:56;;;;;;;;;;;;;;;-144.19;93.23;76339.09;5053248;28;19947;-81
2022/04/12 09:09:27;;;;;;;;;;;;;;;-144.19;95.62;76325.31;5034676;28;19986;-80
2022/04/12 09:11:56;;;;;;;;;;;;;;;-144.19;92.24;76295.78;5033056;28;19932;-84
2022/04/12 09:14:23;;;;;;;;;;;;;;;-144.19;89.87;76303.66;5014766;28;19926;-83
2022/04/12 09:16:51;;;;;;;;;;;;;;;-144.19;89.99;76307.59;5037072;28;19960;-80
2022/04/12 09:19:36;;;;;;;;;;;;;;;-144.19;87.95;76307.59;5040653;28;19925;-79
2022/04/12 09:22:08;;;;;;;;;;;;;;;-144.19;90.43;76256.41;5037169;28;19925;-82
2022/04/12 09:24:36;;;;;;;;;;;;;;;-144.19;87.59;76252.47;5038898;28;19925;-81
2022/04/12 09:27:02;;;;;;;;;;;;;;;-144.19;86.37;76226.88;5043486;28;20320;-80
2022/04/12 09:29:32;;;;;;;;;;;;;;;-144.19;87.46;76209.19;5034423;28;19932;-83
2022/04/12 09:31:58;;;;;;;;;;;;;;;-144.19;87.93;76193.44;5041656;28;20493;-81
2022/04/12 09:34:25;;;;;;;;;;;;;;;-144.19;84.83;76181.63;5026870;28;19931;-82
2022/04/12 09:37:17;;;;;;;;;;;;;;;-144.19;86.82;76138.31;5021954;28;19932;-81
2022/04/12 09:39:54;;;;;;;;;;;;;;;-144.19;92.98;76097.00;5023608;28;19925;-80
2022/04/12 09:42:41;;;;;;;;;;;;;;;-144.19;82.05;76106.81;5038246;28;19936;-80
2022/04/12 09:45:08;;;;;;;;;;;;;;;-144.19;86.79;76067.47;5036821;28;20300;-80
2022/04/12 09:47:34;;;;;;;;;;;;;;;-144.19;78.28;76028.09;5019765;28;19929;-81
2022/04/12 09:50:21;;;;;;;;;;;;;;;-144.19;72.94;75988.75;5038335;28;19929;-78
2022/04/12 09:53:06;;;;;;;;;;;;;;;-144.19;75.25;75967.09;5036598;28;19936;-81
2022/04/12 09:55:38;;;;;;;;;;;;;;;-144.19;74.72;75925.75;5022115;28;19925;-80
2022/04/12 09:58:11;;;;;;;;;;;;;;;-144.19;71.82;75919.84;5038109;28;19933;-80
2022/04/12 10:00:39;;;;;;;;;;;;;;;-144.19;73.73;75886.41;5040405;28;20328;-82
2022/04/12 10:03:07;;;;;;;;;;;;;;;-144.19;71.31;75858.84;5040152;28;20011;-82
2022/04/12 10:05:33;;;;;;;;;;;;;;;-144.19;69.93;75870.66;5037625;28;19931;-82
2022/04/12 10:08:01;;;;;;;;;;;;;;;-144.19;70.02;75847.03;5037941;28;19936;-81
2022/04/12 10:10:28;;;;;;;;;;;;;;;-144.19;72.25;75811.63;5041433;28;19924;-83
2022/04/12 10:12:55;;;;;;;;;;;;;;;-144.19;72.21;75805.72;5031982;28;19933;-83
2022/04/12 10:15:22;;;;;;;;;;;;;;;-144.19;70.82;75788.00;5015060;28;19971;-82
2022/04/12 10:17:49;;;;;;;;;;;;;;;-144.19;71.13;75760.44;5034895;28;19936;-81
2022/04/12 10:20:18;;;;;;;;;;;;;;;-144.19;68.93;75764.38;5034277;28;20299;-81
2022/04/12 10:22:44;;;;;;;;;;;;;;;-144.19;71.04;75721.09;5014048;28;20395;-82
2022/04/12 10:25:21;;;;;;;;;;;;;;;-144.19;68.37;75717.16;5013670;28;20386;-80
2022/04/12 10:27:49;;;;;;;;;;;;;;;-144.19;65.95;75636.47;5010708;28;19925;-80
2022/04/12 10:30:15;;;;;;;;;;;;;;;-144.19;63.74;75654.16;5020256;28;19929;-81
2022/04/12 10:32:58;;;;;;;;;;;;;;;-144.19;62.19;75654.16;5002623;28;20101;-82
2022/04/12 10:35:24;;;;;;;;;;;;;;;-144.19;63.61;75604.97;5031498;28;19933;-80
2022/04/12 10:37:52;;;;;;;;;;;;;;;-144.19;59.79;75569.56;5034111;28;19929;-82
2022/04/12 10:40:48;;;;;;;;;;;;;;;-144.19;58.17;75559.72;5032913;28;19932;-81
2022/04/12 10:43:22;;;;;;;;;;;;;;;-144.19;57.77;75543.97;5029932;28;19925;-81
2022/04/12 10:45:49;;;;;;;;;;;;;;;-144.19;57.79;75520.34;5031514;28;19939;-80
2022/04/12 10:48:20;;;;;;;;;;;;;;;-144.19;56.68;75543.97;5015071;28;19925;-83
2022/04/12 10:50:48;;;;;;;;;;;;;;;-144.19;56.40;75553.81;5029448;28;19933;-79
2022/04/12 10:53:15;;;;;;;;;;;;;;;-144.19;56.45;75512.47;5013247;28;19928;-82
2022/04/12 10:55:42;;;;;;;;;;;;;;;-144.19;53.65;75528.22;5034369;28;19929;-80
2022/04/12 10:58:28;;;;;;;;;;;;;;;-144.19;54.42;75496.75;5034225;28;19932;-81
2022/04/12 11:00:54;;;;;;;;;;;;;;;-144.19;53.65;75500.66;5033271;28;19992;-80
2022/04/12 11:03:48;;;;;;;;;;;;;;;-144.19;53.40;75418.03;5032601;28;19928;-79
2022/04/12 11:06:21;;;;;;;;;;;;;;;-144.19;55.55;75366.84;5027171;28;20284;-82
2022/04/12 11:08:49;;;;;;;;;;;;;;;-144.19;52.75;75288.16;5023423;28;20016;-82
2022/04/12 11:11:20;;;;;;;;;;;;;;;-144.19;50.83;75357.03;5024727;28;19937;-80
2022/04/12 11:13:49;;;;;;;;;;;;;;;-144.19;51.09;75299.94;5022622;28;19932;-80
2022/04/12 11:16:20;;;;;;;;;;;;;;;-144.19;48.60;75236.97;5008831;28;19979;-82
2022/04/12 11:18:50;;;;;;;;;;;;;;;-144.19;49.30;75311.75;5004106;28;19933;-81
2022/04/12 11:21:19;;;;;;;;;;;;;;;-144.19;46.31;75323.56;5024115;28;20582;-80
2022/04/12 11:23:45;;;;;;;;;;;;;;;-144.19;47.92;75331.44;5031086;28;19933;-78
2022/04/12 11:26:30;;;;;;;;;;;;;;;-144.19;47.83;75325.53;5014886;28;20031;-80
2022/04/12 11:28:56;;;;;;;;;;;;;;;-144.19;50.36;75242.88;5033460;28;19931;-81
2022/04/12 11:31:23;;;;;;;;;;;;;;;-144.19;46.33;75268.47;5012571;28;19929;-80
2022/04/12 11:33:49;;;;;;;;;;;;;;;-144.19;48.13;75219.28;5026620;28;20197;-78
2022/04/12 11:36:19;;;;;;;;;;;;;;;-144.19;50.59;75152.38;5050536;28;19929;-79
2022/04/12 11:38:46;;;;;;;;;;;;;;;-144.19;47.08;75233.06;5032420;28;20402;-80
2022/04/12 11:41:12;;;;;;;;;;;;;;;-144.19;48.54;75150.41;5013288;28;19936;-81
2022/04/12 11:43:40;;;;;;;;;;;;;;;-144.19;45.72;75189.75;5015097;28;19925;-81
2022/04/12 11:46:06;;;;;;;;;;;;;;;-144.19;47.52;75170.09;5030565;28;19929;-81
2022/04/12 11:48:32;;;;;;;;;;;;;;;-144.19;46.32;75150.41;5015886;28;20074;-80
2022/04/12 11:51:04;;;;;;;;;;;;;;;-144.19;46.80;75168.13;5032778;28;19932;-79
2022/04/12 11:53:30;;;;;;;;;;;;;;;-144.19;46.97;75177.94;5020961;28;19944;-78
2022/04/12 11:56:00;;;;;;;;;;;;;;;-144.19;45.96;75197.63;5027619;28;20267;-82
2022/04/12 11:58:28;;;;;;;;;;;;;;;-144.19;45.73;75201.56;5032606;28;19929;-79
2022/04/12 12:00:54;;;;;;;;;;;;;;;-144.19;45.61;75134.66;5030056;28;19936;-79
2022/04/12 12:03:27;;;;;;;;;;;;;;;-144.19;44.83;75164.19;5016511;28;20221;-81
2022/04/12 12:05:56;;;;;;;;;;;;;;;-144.19;45.49;75219.28;5034415;28;19931;-80
2022/04/12 12:08:22;;;;;;;;;;;;;;;-144.19;46.20;75225.19;5033613;28;19936;-84
2022/04/12 12:10:52;;;;;;;;;;;;;;;-144.19;47.19;75236.97;5015456;28;20540;-79
2022/04/12 12:13:24;;;;;;;;;;;;;;;-144.19;46.50;75209.44;5032470;28;20482;-83
2022/04/12 12:15:51;;;;;;;;;;;;;;;-144.19;45.47;75266.50;5032920;28;19929;-79
2022/04/12 12:18:19;;;;;;;;;;;;;;;-144.19;46.31;75189.75;5007079;28;19955;-80
2022/04/12 12:20:46;;;;;;;;;;;;;;;-144.19;54.67;75185.81;5022230;28;19929;-80
2022/04/12 12:23:12;;;;;;;;;;;;;;;-144.19;47.49;75223.22;5021865;28;19933;-82
2022/04/12 12:25:48;;;;;;;;;;;;;;;-144.19;45.89;75144.50;5020765;28;19926;-81
2022/04/12 12:28:15;;;;;;;;;;;;;;;-144.19;44.70;75154.34;5026497;28;20287;-83